sensor_id;sensor_type;location;lat;lon;timestamp;P1;durP1;ratioP1;P2;durP2;ratioP2
6406;SDS011;3236;51.022;6.818;2023-04-01T00:00:56;0.57;;;0.40;;
6406;SDS011;3236;51.022;6.818;2023-04-01T00:03:24;0.35;;;0.30;;
6406;SDS011;3236;51.022;6.818;2023-04-01T00:05:52;4.13;;;0.50;;
6406;SDS011;3236;51.022;6.818;2023-04-01T00:08:21;1.02;;;0.30;;
6406;SDS011;3236;51.022;6.818;2023-04-01T00:10:49;1.63;;;0.30;;
6406;SDS011;3236;51.022;6.818;2023-04-01T00:13:17;0.45;;;0.45;;
6406;SDS011;3236;51.022;6.818;2023-04-01T00:15:44;3.25;;;0.75;;
6406;SDS011;3236;51.022;6.818;2023-04-01T00:18:13;1.30;;;0.50;;
6406;SDS011;3236;51.022;6.818;2023-04-01T00:20:44;1.40;;;0.40;;
6406;SDS011;3236;51.022;6.818;2023-04-01T00:23:11;0.40;;;0.40;;
6406;SDS011;3236;51.022;6.818;2023-04-01T00:25:40;0.77;;;0.43;;
6406;SDS011;3236;51.022;6.818;2023-04-01T00:28:10;0.55;;;0.55;;
6406;SDS011;3236;51.022;6.818;2023-04-01T00:30:37;2.70;;;0.40;;
6406;SDS011;3236;51.022;6.818;2023-04-01T00:33:04;2.25;;;0.55;;
6406;SDS011;3236;51.022;6.818;2023-04-01T00:35:31;0.40;;;0.38;;
6406;SDS011;3236;51.022;6.818;2023-04-01T00:37:59;1.95;;;0.50;;
6406;SDS011;3236;51.022;6.818;2023-04-01T00:40:28;0.68;;;0.50;;
6406;SDS011;3236;51.022;6.818;2023-04-01T00:42:59;2.05;;;0.60;;
6406;SDS011;3236;51.022;6.818;2023-04-01T00:45:29;4.22;;;0.50;;
6406;SDS011;3236;51.022;6.818;2023-04-01T00:47:59;2.20;;;0.50;;
6406;SDS011;3236;51.022;6.818;2023-04-01T00:50:31;0.30;;;0.30;;
6406;SDS011;3236;51.022;6.818;2023-04-01T00:53:02;1.98;;;0.60;;
6406;SDS011;3236;51.022;6.818;2023-04-01T00:55:30;1.55;;;0.50;;
6406;SDS011;3236;51.022;6.818;2023-04-01T00:58:02;2.20;;;0.50;;
6406;SDS011;3236;51.022;6.818;2023-04-01T01:00:38;1.27;;;0.50;;
6406;SDS011;3236;51.022;6.818;2023-04-01T01:03:05;0.68;;;0.50;;
6406;SDS011;3236;51.022;6.818;2023-04-01T01:05:36;0.45;;;0.40;;
6406;SDS011;3236;51.022;6.818;2023-04-01T01:08:15;0.30;;;0.30;;
6406;SDS011;3236;51.022;6.818;2023-04-01T01:10:48;2.25;;;0.40;;
6406;SDS011;3236;51.022;6.818;2023-04-01T01:13:19;1.30;;;0.30;;
6406;SDS011;3236;51.022;6.818;2023-04-01T01:15:51;2.53;;;0.80;;
6406;SDS011;3236;51.022;6.818;2023-04-01T01:18:24;0.40;;;0.40;;
6406;SDS011;3236;51.022;6.818;2023-04-01T01:27:04;0.95;;;0.40;;
6406;SDS011;3236;51.022;6.818;2023-04-01T01:32:56;2.00;;;0.50;;
6406;SDS011;3236;51.022;6.818;2023-04-01T01:35:41;0.73;;;0.35;;
6406;SDS011;3236;51.022;6.818;2023-04-01T01:38:15;2.58;;;1.60;;
6406;SDS011;3236;51.022;6.818;2023-04-01T01:40:44;0.47;;;0.40;;
6406;SDS011;3236;51.022;6.818;2023-04-01T01:43:26;2.53;;;0.32;;
6406;SDS011;3236;51.022;6.818;2023-04-01T01:45:58;1.17;;;0.38;;
6406;SDS011;3236;51.022;6.818;2023-04-01T01:48:29;1.88;;;0.40;;
6406;SDS011;3236;51.022;6.818;2023-04-01T01:50:59;0.20;;;0.20;;
6406;SDS011;3236;51.022;6.818;2023-04-01T01:53:27;0.30;;;0.30;;
6406;SDS011;3236;51.022;6.818;2023-04-01T01:55:57;1.30;;;0.30;;
6406;SDS011;3236;51.022;6.818;2023-04-01T01:58:25;1.55;;;0.45;;
6406;SDS011;3236;51.022;6.818;2023-04-01T02:00:57;0.30;;;0.30;;
6406;SDS011;3236;51.022;6.818;2023-04-01T02:03:26;0.25;;;0.25;;
6406;SDS011;3236;51.022;6.818;2023-04-01T02:06:02;0.73;;;0.40;;
6406;SDS011;3236;51.022;6.818;2023-04-01T02:08:32;1.15;;;0.45;;
6406;SDS011;3236;51.022;6.818;2023-04-01T02:11:03;0.28;;;0.20;;
6406;SDS011;3236;51.022;6.818;2023-04-01T02:13:33;0.95;;;0.30;;
6406;SDS011;3236;51.022;6.818;2023-04-01T02:16:05;0.30;;;0.30;;
6406;SDS011;3236;51.022;6.818;2023-04-01T02:18:43;0.52;;;0.22;;
6406;SDS011;3236;51.022;6.818;2023-04-01T02:21:15;0.75;;;0.40;;
6406;SDS011;3236;51.022;6.818;2023-04-01T02:23:43;0.30;;;0.30;;
6406;SDS011;3236;51.022;6.818;2023-04-01T02:26:16;0.20;;;0.20;;
6406;SDS011;3236;51.022;6.818;2023-04-01T02:28:44;3.78;;;0.40;;
6406;SDS011;3236;51.022;6.818;2023-04-01T02:31:13;0.20;;;0.20;;
6406;SDS011;3236;51.022;6.818;2023-04-01T02:33:41;0.68;;;0.40;;
6406;SDS011;3236;51.022;6.818;2023-04-01T02:36:10;0.38;;;0.20;;
6406;SDS011;3236;51.022;6.818;2023-04-01T02:38:40;0.32;;;0.32;;
6406;SDS011;3236;51.022;6.818;2023-04-01T02:41:10;0.30;;;0.30;;
6406;SDS011;3236;51.022;6.818;2023-04-01T02:43:37;0.30;;;0.30;;
6406;SDS011;3236;51.022;6.818;2023-04-01T02:46:05;0.20;;;0.20;;
6406;SDS011;3236;51.022;6.818;2023-04-01T02:48:34;0.38;;;0.30;;
6406;SDS011;3236;51.022;6.818;2023-04-01T02:51:01;0.40;;;0.20;;
6406;SDS011;3236;51.022;6.818;2023-04-01T02:53:31;0.95;;;0.30;;
6406;SDS011;3236;51.022;6.818;2023-04-01T02:56:00;0.45;;;0.30;;
6406;SDS011;3236;51.022;6.818;2023-04-01T02:58:27;0.30;;;0.30;;
6406;SDS011;3236;51.022;6.818;2023-04-01T03:00:54;0.70;;;0.32;;
6406;SDS011;3236;51.022;6.818;2023-04-01T03:03:21;1.13;;;0.22;;
6406;SDS011;3236;51.022;6.818;2023-04-01T03:05:48;3.72;;;0.40;;
6406;SDS011;3236;51.022;6.818;2023-04-01T03:08:16;1.13;;;0.65;;
6406;SDS011;3236;51.022;6.818;2023-04-01T03:10:44;0.20;;;0.20;;
6406;SDS011;3236;51.022;6.818;2023-04-01T03:13:13;0.77;;;0.40;;
6406;SDS011;3236;51.022;6.818;2023-04-01T03:15:42;0.32;;;0.30;;
6406;SDS011;3236;51.022;6.818;2023-04-01T03:18:09;2.15;;;0.77;;
6406;SDS011;3236;51.022;6.818;2023-04-01T03:20:36;1.75;;;0.47;;
6406;SDS011;3236;51.022;6.818;2023-04-01T03:23:03;0.50;;;0.30;;
6406;SDS011;3236;51.022;6.818;2023-04-01T03:25:35;0.85;;;0.85;;
6406;SDS011;3236;51.022;6.818;2023-04-01T03:28:03;4.95;;;0.40;;
6406;SDS011;3236;51.022;6.818;2023-04-01T03:30:31;0.40;;;0.40;;
6406;SDS011;3236;51.022;6.818;2023-04-01T03:33:03;0.68;;;0.50;;
6406;SDS011;3236;51.022;6.818;2023-04-01T03:38:08;0.30;;;0.30;;
6406;SDS011;3236;51.022;6.818;2023-04-01T03:40:35;1.55;;;0.30;;
6406;SDS011;3236;51.022;6.818;2023-04-01T03:43:03;0.25;;;0.25;;
6406;SDS011;3236;51.022;6.818;2023-04-01T03:45:34;0.40;;;0.40;;
6406;SDS011;3236;51.022;6.818;2023-04-01T03:48:02;0.85;;;0.20;;
6406;SDS011;3236;51.022;6.818;2023-04-01T03:50:29;1.25;;;0.40;;
6406;SDS011;3236;51.022;6.818;2023-04-01T03:52:56;0.70;;;0.40;;
6406;SDS011;3236;51.022;6.818;2023-04-01T03:55:23;0.35;;;0.35;;
6406;SDS011;3236;51.022;6.818;2023-04-01T03:57:51;0.45;;;0.43;;
6406;SDS011;3236;51.022;6.818;2023-04-01T04:00:19;0.25;;;0.22;;
6406;SDS011;3236;51.022;6.818;2023-04-01T04:02:47;1.13;;;0.50;;
6406;SDS011;3236;51.022;6.818;2023-04-01T04:05:15;1.48;;;0.40;;
6406;SDS011;3236;51.022;6.818;2023-04-01T04:07:42;0.30;;;0.30;;
6406;SDS011;3236;51.022;6.818;2023-04-01T04:10:09;1.95;;;0.50;;
6406;SDS011;3236;51.022;6.818;2023-04-01T04:12:36;1.67;;;0.30;;
6406;SDS011;3236;51.022;6.818;2023-04-01T04:15:05;1.33;;;0.40;;
6406;SDS011;3236;51.022;6.818;2023-04-01T04:17:33;1.92;;;0.30;;
6406;SDS011;3236;51.022;6.818;2023-04-01T04:20:02;2.13;;;0.38;;
6406;SDS011;3236;51.022;6.818;2023-04-01T04:22:29;0.50;;;0.32;;
6406;SDS011;3236;51.022;6.818;2023-04-01T04:24:56;0.40;;;0.40;;
6406;SDS011;3236;51.022;6.818;2023-04-01T04:27:23;1.08;;;0.30;;
6406;SDS011;3236;51.022;6.818;2023-04-01T04:29:50;1.00;;;0.60;;
6406;SDS011;3236;51.022;6.818;2023-04-01T04:32:17;0.88;;;0.52;;
6406;SDS011;3236;51.022;6.818;2023-04-01T04:34:45;0.55;;;0.50;;
6406;SDS011;3236;51.022;6.818;2023-04-01T04:37:13;1.10;;;1.00;;
6406;SDS011;3236;51.022;6.818;2023-04-01T04:39:40;0.50;;;0.40;;
6406;SDS011;3236;51.022;6.818;2023-04-01T04:42:07;0.50;;;0.50;;
6406;SDS011;3236;51.022;6.818;2023-04-01T04:44:34;0.65;;;0.60;;
6406;SDS011;3236;51.022;6.818;2023-04-01T04:47:01;3.00;;;0.63;;
6406;SDS011;3236;51.022;6.818;2023-04-01T04:49:29;0.50;;;0.50;;
6406;SDS011;3236;51.022;6.818;2023-04-01T04:51:56;2.78;;;0.50;;
6406;SDS011;3236;51.022;6.818;2023-04-01T04:54:24;1.23;;;0.50;;
6406;SDS011;3236;51.022;6.818;2023-04-01T04:56:51;2.33;;;0.75;;
6406;SDS011;3236;51.022;6.818;2023-04-01T04:59:19;0.68;;;0.50;;
6406;SDS011;3236;51.022;6.818;2023-04-01T05:01:46;1.20;;;0.60;;
6406;SDS011;3236;51.022;6.818;2023-04-01T05:04:16;1.50;;;1.35;;
6406;SDS011;3236;51.022;6.818;2023-04-01T05:06:43;0.80;;;0.65;;
6406;SDS011;3236;51.022;6.818;2023-04-01T05:09:10;1.77;;;0.80;;
6406;SDS011;3236;51.022;6.818;2023-04-01T05:11:42;0.85;;;0.70;;
6406;SDS011;3236;51.022;6.818;2023-04-01T05:14:12;0.73;;;0.70;;
6406;SDS011;3236;51.022;6.818;2023-04-01T05:16:39;0.88;;;0.65;;
6406;SDS011;3236;51.022;6.818;2023-04-01T05:19:07;1.45;;;0.90;;
6406;SDS011;3236;51.022;6.818;2023-04-01T05:21:34;1.48;;;1.10;;
6406;SDS011;3236;51.022;6.818;2023-04-01T05:24:02;1.42;;;1.20;;
6406;SDS011;3236;51.022;6.818;2023-04-01T05:26:29;1.33;;;0.95;;
6406;SDS011;3236;51.022;6.818;2023-04-01T05:29:00;1.75;;;0.80;;
6406;SDS011;3236;51.022;6.818;2023-04-01T05:31:28;4.90;;;0.70;;
6406;SDS011;3236;51.022;6.818;2023-04-01T05:33:56;1.88;;;0.90;;
6406;SDS011;3236;51.022;6.818;2023-04-01T05:36:29;0.70;;;0.70;;
6406;SDS011;3236;51.022;6.818;2023-04-01T05:38:56;0.90;;;0.70;;
6406;SDS011;3236;51.022;6.818;2023-04-01T05:41:26;1.50;;;0.88;;
6406;SDS011;3236;51.022;6.818;2023-04-01T05:43:55;1.30;;;0.80;;
6406;SDS011;3236;51.022;6.818;2023-04-01T05:46:24;3.58;;;1.00;;
6406;SDS011;3236;51.022;6.818;2023-04-01T05:48:54;2.05;;;0.70;;
6406;SDS011;3236;51.022;6.818;2023-04-01T05:51:29;2.13;;;1.10;;
6406;SDS011;3236;51.022;6.818;2023-04-01T05:53:57;1.60;;;0.70;;
6406;SDS011;3236;51.022;6.818;2023-04-01T05:56:24;0.68;;;0.68;;
6406;SDS011;3236;51.022;6.818;2023-04-01T05:58:55;2.78;;;1.20;;
6406;SDS011;3236;51.022;6.818;2023-04-01T06:01:33;1.00;;;0.88;;
6406;SDS011;3236;51.022;6.818;2023-04-01T06:04:03;2.17;;;1.27;;
6406;SDS011;3236;51.022;6.818;2023-04-01T06:06:30;1.35;;;0.75;;
6406;SDS011;3236;51.022;6.818;2023-04-01T06:09:01;0.95;;;0.85;;
6406;SDS011;3236;51.022;6.818;2023-04-01T06:11:34;1.08;;;0.90;;
6406;SDS011;3236;51.022;6.818;2023-04-01T06:14:17;0.47;;;0.47;;
6406;SDS011;3236;51.022;6.818;2023-04-01T06:17:01;0.82;;;0.73;;
6406;SDS011;3236;51.022;6.818;2023-04-01T06:19:40;0.98;;;0.88;;
6406;SDS011;3236;51.022;6.818;2023-04-01T06:25:14;0.93;;;0.93;;
6406;SDS011;3236;51.022;6.818;2023-04-01T06:28:19;0.63;;;0.60;;
6406;SDS011;3236;51.022;6.818;2023-04-01T06:31:10;4.05;;;0.75;;
6406;SDS011;3236;51.022;6.818;2023-04-01T06:33:55;1.38;;;0.90;;
6406;SDS011;3236;51.022;6.818;2023-04-01T06:36:46;0.65;;;0.45;;
6406;SDS011;3236;51.022;6.818;2023-04-01T06:39:30;2.53;;;1.00;;
6406;SDS011;3236;51.022;6.818;2023-04-01T06:44:56;0.80;;;0.80;;
6406;SDS011;3236;51.022;6.818;2023-04-01T06:47:36;1.77;;;1.02;;
6406;SDS011;3236;51.022;6.818;2023-04-01T06:50:15;3.25;;;1.20;;
6406;SDS011;3236;51.022;6.818;2023-04-01T06:52:50;1.00;;;0.82;;
6406;SDS011;3236;51.022;6.818;2023-04-01T06:55:29;1.27;;;0.80;;
6406;SDS011;3236;51.022;6.818;2023-04-01T06:58:04;2.60;;;1.25;;
6406;SDS011;3236;51.022;6.818;2023-04-01T07:00:38;1.67;;;1.27;;
6406;SDS011;3236;51.022;6.818;2023-04-01T07:03:09;1.88;;;1.10;;
6406;SDS011;3236;51.022;6.818;2023-04-01T07:05:47;4.07;;;1.30;;
6406;SDS011;3236;51.022;6.818;2023-04-01T07:08:17;1.52;;;1.30;;
6406;SDS011;3236;51.022;6.818;2023-04-01T07:10:48;1.60;;;1.20;;
6406;SDS011;3236;51.022;6.818;2023-04-01T07:13:22;1.33;;;0.98;;
6406;SDS011;3236;51.022;6.818;2023-04-01T07:15:56;2.03;;;1.70;;
6406;SDS011;3236;51.022;6.818;2023-04-01T07:18:32;1.25;;;1.15;;
6406;SDS011;3236;51.022;6.818;2023-04-01T07:21:07;1.90;;;1.10;;
6406;SDS011;3236;51.022;6.818;2023-04-01T07:23:44;3.35;;;1.73;;
6406;SDS011;3236;51.022;6.818;2023-04-01T07:26:15;4.72;;;1.77;;
6406;SDS011;3236;51.022;6.818;2023-04-01T07:28:47;2.53;;;1.45;;
6406;SDS011;3236;51.022;6.818;2023-04-01T07:31:22;1.77;;;1.30;;
6406;SDS011;3236;51.022;6.818;2023-04-01T07:34:04;5.75;;;1.60;;
6406;SDS011;3236;51.022;6.818;2023-04-01T07:36:42;2.50;;;1.75;;
6406;SDS011;3236;51.022;6.818;2023-04-01T07:39:21;1.65;;;1.40;;
6406;SDS011;3236;51.022;6.818;2023-04-01T07:41:58;3.05;;;2.22;;
6406;SDS011;3236;51.022;6.818;2023-04-01T07:44:32;3.72;;;2.03;;
6406;SDS011;3236;51.022;6.818;2023-04-01T07:47:21;2.45;;;1.27;;
6406;SDS011;3236;51.022;6.818;2023-04-01T07:50:00;3.63;;;1.70;;
6406;SDS011;3236;51.022;6.818;2023-04-01T07:52:38;3.10;;;1.35;;
6406;SDS011;3236;51.022;6.818;2023-04-01T07:55:12;3.97;;;1.75;;
6406;SDS011;3236;51.022;6.818;2023-04-01T07:57:43;3.50;;;1.20;;
6406;SDS011;3236;51.022;6.818;2023-04-01T08:00:18;2.13;;;1.65;;
6406;SDS011;3236;51.022;6.818;2023-04-01T08:05:24;2.42;;;1.20;;
6406;SDS011;3236;51.022;6.818;2023-04-01T08:07:57;0.63;;;0.45;;
6406;SDS011;3236;51.022;6.818;2023-04-01T08:10:33;1.25;;;1.08;;
6406;SDS011;3236;51.022;6.818;2023-04-01T08:13:06;1.38;;;1.23;;
6406;SDS011;3236;51.022;6.818;2023-04-01T08:15:41;2.85;;;1.27;;
6406;SDS011;3236;51.022;6.818;2023-04-01T08:18:26;2.35;;;1.33;;
6406;SDS011;3236;51.022;6.818;2023-04-01T08:21:02;1.35;;;1.25;;
6406;SDS011;3236;51.022;6.818;2023-04-01T08:23:32;1.70;;;1.10;;
6406;SDS011;3236;51.022;6.818;2023-04-01T08:26:19;1.88;;;1.17;;
6406;SDS011;3236;51.022;6.818;2023-04-01T08:28:54;1.33;;;1.05;;
6406;SDS011;3236;51.022;6.818;2023-04-01T08:31:29;2.00;;;1.13;;
6406;SDS011;3236;51.022;6.818;2023-04-01T08:34:08;2.50;;;1.55;;
6406;SDS011;3236;51.022;6.818;2023-04-01T08:36:44;1.50;;;1.00;;
6406;SDS011;3236;51.022;6.818;2023-04-01T08:39:28;0.85;;;0.70;;
6406;SDS011;3236;51.022;6.818;2023-04-01T08:42:16;1.10;;;1.00;;
6406;SDS011;3236;51.022;6.818;2023-04-01T08:45:05;1.38;;;0.98;;
6406;SDS011;3236;51.022;6.818;2023-04-01T08:47:46;0.63;;;0.63;;
6406;SDS011;3236;51.022;6.818;2023-04-01T08:50:40;0.80;;;0.80;;
6406;SDS011;3236;51.022;6.818;2023-04-01T08:53:36;1.55;;;0.90;;
6406;SDS011;3236;51.022;6.818;2023-04-01T08:56:21;1.48;;;0.88;;
6406;SDS011;3236;51.022;6.818;2023-04-01T08:59:09;0.70;;;0.70;;
6406;SDS011;3236;51.022;6.818;2023-04-01T09:01:58;0.88;;;0.88;;
6406;SDS011;3236;51.022;6.818;2023-04-01T09:04:51;0.88;;;0.60;;
6406;SDS011;3236;51.022;6.818;2023-04-01T09:07:57;2.40;;;0.80;;
6406;SDS011;3236;51.022;6.818;2023-04-01T09:10:36;0.85;;;0.82;;
6406;SDS011;3236;51.022;6.818;2023-04-01T09:13:41;0.95;;;0.77;;
6406;SDS011;3236;51.022;6.818;2023-04-01T09:16:28;0.60;;;0.60;;
6406;SDS011;3236;51.022;6.818;2023-04-01T09:19:10;1.55;;;1.15;;
6406;SDS011;3236;51.022;6.818;2023-04-01T09:22:03;1.05;;;0.60;;
6406;SDS011;3236;51.022;6.818;2023-04-01T09:28:05;1.17;;;0.98;;
6406;SDS011;3236;51.022;6.818;2023-04-01T09:30:52;0.75;;;0.75;;
6406;SDS011;3236;51.022;6.818;2023-04-01T09:34:01;0.80;;;0.80;;
6406;SDS011;3236;51.022;6.818;2023-04-01T09:36:52;3.05;;;1.30;;
6406;SDS011;3236;51.022;6.818;2023-04-01T09:39:41;2.90;;;1.15;;
6406;SDS011;3236;51.022;6.818;2023-04-01T09:42:37;3.80;;;1.33;;
6406;SDS011;3236;51.022;6.818;2023-04-01T09:45:09;1.58;;;1.48;;
6406;SDS011;3236;51.022;6.818;2023-04-01T09:47:50;3.90;;;1.40;;
6406;SDS011;3236;51.022;6.818;2023-04-01T09:50:29;1.42;;;1.33;;
6406;SDS011;3236;51.022;6.818;2023-04-01T09:53:19;2.50;;;1.48;;
6406;SDS011;3236;51.022;6.818;2023-04-01T09:56:12;11.13;;;2.00;;
6406;SDS011;3236;51.022;6.818;2023-04-01T10:05:34;1.58;;;1.25;;
6406;SDS011;3236;51.022;6.818;2023-04-01T10:08:43;1.33;;;1.23;;
6406;SDS011;3236;51.022;6.818;2023-04-01T10:12:06;1.33;;;1.27;;
6406;SDS011;3236;51.022;6.818;2023-04-01T10:24:09;1.48;;;1.38;;
6406;SDS011;3236;51.022;6.818;2023-04-01T10:27:09;1.27;;;1.17;;
6406;SDS011;3236;51.022;6.818;2023-04-01T10:33:01;1.88;;;1.08;;
6406;SDS011;3236;51.022;6.818;2023-04-01T10:45:58;2.47;;;1.92;;
6406;SDS011;3236;51.022;6.818;2023-04-01T10:52:03;4.15;;;2.78;;
6406;SDS011;3236;51.022;6.818;2023-04-01T10:54:47;3.05;;;2.50;;
6406;SDS011;3236;51.022;6.818;2023-04-01T10:57:51;3.63;;;2.42;;
6406;SDS011;3236;51.022;6.818;2023-04-01T11:00:32;3.30;;;2.45;;
6406;SDS011;3236;51.022;6.818;2023-04-01T11:06:38;2.03;;;1.83;;
6406;SDS011;3236;51.022;6.818;2023-04-01T11:24:53;4.53;;;2.13;;
6406;SDS011;3236;51.022;6.818;2023-04-01T11:27:46;2.33;;;1.65;;
6406;SDS011;3236;51.022;6.818;2023-04-01T11:30:31;2.22;;;2.03;;
6406;SDS011;3236;51.022;6.818;2023-04-01T11:33:10;1.85;;;1.67;;
6406;SDS011;3236;51.022;6.818;2023-04-01T11:35:52;4.13;;;2.05;;
6406;SDS011;3236;51.022;6.818;2023-04-01T11:38:32;2.55;;;2.22;;
6406;SDS011;3236;51.022;6.818;2023-04-01T11:41:18;3.50;;;1.85;;
6406;SDS011;3236;51.022;6.818;2023-04-01T11:43:57;4.22;;;2.17;;
6406;SDS011;3236;51.022;6.818;2023-04-01T11:46:42;2.33;;;2.08;;
6406;SDS011;3236;51.022;6.818;2023-04-01T11:49:46;1.90;;;1.70;;
6406;SDS011;3236;51.022;6.818;2023-04-01T11:52:35;1.40;;;1.30;;
6406;SDS011;3236;51.022;6.818;2023-04-01T11:55:19;2.20;;;2.00;;
6406;SDS011;3236;51.022;6.818;2023-04-01T11:58:10;2.10;;;1.90;;
6406;SDS011;3236;51.022;6.818;2023-04-01T12:01:06;1.65;;;1.55;;
6406;SDS011;3236;51.022;6.818;2023-04-01T12:07:23;1.63;;;1.52;;
6406;SDS011;3236;51.022;6.818;2023-04-01T12:10:29;1.67;;;1.58;;
6406;SDS011;3236;51.022;6.818;2023-04-01T12:13:11;1.17;;;1.08;;
6406;SDS011;3236;51.022;6.818;2023-04-01T12:15:50;1.70;;;1.60;;
6406;SDS011;3236;51.022;6.818;2023-04-01T12:18:26;1.70;;;1.60;;
6406;SDS011;3236;51.022;6.818;2023-04-01T12:21:09;1.88;;;1.38;;
6406;SDS011;3236;51.022;6.818;2023-04-01T12:24:05;1.42;;;1.33;;
6406;SDS011;3236;51.022;6.818;2023-04-01T12:32:37;1.50;;;1.40;;
6406;SDS011;3236;51.022;6.818;2023-04-01T12:35:20;1.52;;;1.42;;
6406;SDS011;3236;51.022;6.818;2023-04-01T12:37:57;3.13;;;1.60;;
6406;SDS011;3236;51.022;6.818;2023-04-01T12:40:44;1.27;;;1.17;;
6406;SDS011;3236;51.022;6.818;2023-04-01T12:43:22;1.70;;;1.60;;
6406;SDS011;3236;51.022;6.818;2023-04-01T12:46:22;2.00;;;1.90;;
6406;SDS011;3236;51.022;6.818;2023-04-01T12:49:03;4.07;;;2.03;;
6406;SDS011;3236;51.022;6.818;2023-04-01T12:51:49;1.63;;;1.52;;
6406;SDS011;3236;51.022;6.818;2023-04-01T12:54:38;1.75;;;1.50;;
6406;SDS011;3236;51.022;6.818;2023-04-01T12:57:59;1.35;;;1.25;;
6406;SDS011;3236;51.022;6.818;2023-04-01T13:00:56;2.08;;;1.48;;
6406;SDS011;3236;51.022;6.818;2023-04-01T13:07:01;1.80;;;1.70;;
6406;SDS011;3236;51.022;6.818;2023-04-01T13:09:55;1.23;;;1.13;;
6406;SDS011;3236;51.022;6.818;2023-04-01T13:15:32;2.20;;;1.98;;
6406;SDS011;3236;51.022;6.818;2023-04-01T13:18:12;3.08;;;1.58;;
6406;SDS011;3236;51.022;6.818;2023-04-01T13:20:49;5.57;;;1.80;;
6406;SDS011;3236;51.022;6.818;2023-04-01T13:23:30;1.88;;;1.65;;
6406;SDS011;3236;51.022;6.818;2023-04-01T13:26:12;3.28;;;2.97;;
6406;SDS011;3236;51.022;6.818;2023-04-01T13:28:46;2.30;;;2.10;;
6406;SDS011;3236;51.022;6.818;2023-04-01T13:31:29;2.80;;;2.42;;
6406;SDS011;3236;51.022;6.818;2023-04-01T13:34:09;3.53;;;3.22;;
6406;SDS011;3236;51.022;6.818;2023-04-01T13:36:55;2.75;;;2.25;;
6406;SDS011;3236;51.022;6.818;2023-04-01T13:39:35;4.10;;;1.80;;
6406;SDS011;3236;51.022;6.818;2023-04-01T13:42:26;3.10;;;2.80;;
6406;SDS011;3236;51.022;6.818;2023-04-01T13:44:57;3.67;;;2.47;;
6406;SDS011;3236;51.022;6.818;2023-04-01T13:50:47;3.40;;;3.10;;
6406;SDS011;3236;51.022;6.818;2023-04-01T13:56:41;3.08;;;2.78;;
6406;SDS011;3236;51.022;6.818;2023-04-01T14:05:59;6.65;;;3.05;;
6406;SDS011;3236;51.022;6.818;2023-04-01T14:08:39;3.40;;;2.55;;
6406;SDS011;3236;51.022;6.818;2023-04-01T14:11:24;4.15;;;3.20;;
6406;SDS011;3236;51.022;6.818;2023-04-01T14:14:02;4.88;;;3.72;;
6406;SDS011;3236;51.022;6.818;2023-04-01T14:19:36;3.55;;;2.60;;
6406;SDS011;3236;51.022;6.818;2023-04-01T14:22:31;9.10;;;2.85;;
6406;SDS011;3236;51.022;6.818;2023-04-01T14:25:17;4.13;;;3.60;;
6406;SDS011;3236;51.022;6.818;2023-04-01T14:28:02;5.13;;;3.80;;
6406;SDS011;3236;51.022;6.818;2023-04-01T14:30:37;4.50;;;3.40;;
6406;SDS011;3236;51.022;6.818;2023-04-01T14:33:31;3.72;;;2.88;;
6406;SDS011;3236;51.022;6.818;2023-04-01T14:39:08;5.20;;;3.70;;
6406;SDS011;3236;51.022;6.818;2023-04-01T14:41:51;4.90;;;3.65;;
6406;SDS011;3236;51.022;6.818;2023-04-01T14:47:24;6.03;;;4.40;;
6406;SDS011;3236;51.022;6.818;2023-04-01T14:50:06;4.25;;;3.38;;
6406;SDS011;3236;51.022;6.818;2023-04-01T14:52:39;5.45;;;3.90;;
6406;SDS011;3236;51.022;6.818;2023-04-01T14:55:23;6.75;;;4.40;;
6406;SDS011;3236;51.022;6.818;2023-04-01T14:58:12;4.65;;;3.63;;
6406;SDS011;3236;51.022;6.818;2023-04-01T15:00:51;5.93;;;4.82;;
6406;SDS011;3236;51.022;6.818;2023-04-01T15:03:36;6.70;;;4.38;;
6406;SDS011;3236;51.022;6.818;2023-04-01T15:06:30;7.70;;;4.97;;
6406;SDS011;3236;51.022;6.818;2023-04-01T15:09:12;6.23;;;4.53;;
6406;SDS011;3236;51.022;6.818;2023-04-01T15:11:56;5.82;;;3.75;;
6406;SDS011;3236;51.022;6.818;2023-04-01T15:17:31;3.83;;;2.90;;
6406;SDS011;3236;51.022;6.818;2023-04-01T15:20:13;9.15;;;4.05;;
6406;SDS011;3236;51.022;6.818;2023-04-01T15:22:59;4.67;;;3.47;;
6406;SDS011;3236;51.022;6.818;2023-04-01T15:25:53;3.83;;;3.10;;
6406;SDS011;3236;51.022;6.818;2023-04-01T15:28:56;4.32;;;3.50;;
6406;SDS011;3236;51.022;6.818;2023-04-01T15:31:45;4.82;;;3.53;;
6406;SDS011;3236;51.022;6.818;2023-04-01T15:34:27;4.40;;;3.73;;
6406;SDS011;3236;51.022;6.818;2023-04-01T15:37:02;4.32;;;3.72;;
6406;SDS011;3236;51.022;6.818;2023-04-01T15:39:49;4.63;;;3.20;;
6406;SDS011;3236;51.022;6.818;2023-04-01T15:42:27;5.97;;;4.18;;
6406;SDS011;3236;51.022;6.818;2023-04-01T15:48:13;4.65;;;3.90;;
6406;SDS011;3236;51.022;6.818;2023-04-01T15:54:07;5.18;;;3.80;;
6406;SDS011;3236;51.022;6.818;2023-04-01T15:56:55;5.13;;;3.50;;
6406;SDS011;3236;51.022;6.818;2023-04-01T15:59:54;4.88;;;3.75;;
6406;SDS011;3236;51.022;6.818;2023-04-01T16:02:39;6.47;;;4.85;;
6406;SDS011;3236;51.022;6.818;2023-04-01T16:05:11;7.32;;;4.45;;
6406;SDS011;3236;51.022;6.818;2023-04-01T16:08:09;8.15;;;3.83;;
6406;SDS011;3236;51.022;6.818;2023-04-01T16:10:45;4.60;;;3.67;;
6406;SDS011;3236;51.022;6.818;2023-04-01T16:13:32;6.32;;;3.47;;
6406;SDS011;3236;51.022;6.818;2023-04-01T16:16:10;5.18;;;3.58;;
6406;SDS011;3236;51.022;6.818;2023-04-01T16:18:53;4.85;;;3.45;;
6406;SDS011;3236;51.022;6.818;2023-04-01T16:21:53;6.13;;;3.17;;
6406;SDS011;3236;51.022;6.818;2023-04-01T16:24:31;5.20;;;3.78;;
6406;SDS011;3236;51.022;6.818;2023-04-01T16:27:03;3.45;;;2.88;;
6406;SDS011;3236;51.022;6.818;2023-04-01T16:29:34;6.28;;;3.70;;
6406;SDS011;3236;51.022;6.818;2023-04-01T16:34:41;3.63;;;2.90;;
6406;SDS011;3236;51.022;6.818;2023-04-01T16:37:15;5.47;;;4.28;;
6406;SDS011;3236;51.022;6.818;2023-04-01T16:39:49;6.07;;;3.67;;
6406;SDS011;3236;51.022;6.818;2023-04-01T16:42:30;6.40;;;4.10;;
6406;SDS011;3236;51.022;6.818;2023-04-01T16:45:06;5.85;;;4.53;;
6406;SDS011;3236;51.022;6.818;2023-04-01T16:47:46;6.38;;;3.92;;
6406;SDS011;3236;51.022;6.818;2023-04-01T16:50:17;5.65;;;3.90;;
6406;SDS011;3236;51.022;6.818;2023-04-01T16:53:00;4.57;;;3.45;;
6406;SDS011;3236;51.022;6.818;2023-04-01T16:55:43;5.57;;;3.97;;
6406;SDS011;3236;51.022;6.818;2023-04-01T16:58:17;4.65;;;4.13;;
6406;SDS011;3236;51.022;6.818;2023-04-01T17:03:22;4.35;;;3.45;;
6406;SDS011;3236;51.022;6.818;2023-04-01T17:05:54;4.68;;;3.85;;
6406;SDS011;3236;51.022;6.818;2023-04-01T17:08:36;6.28;;;4.50;;
6406;SDS011;3236;51.022;6.818;2023-04-01T17:11:08;6.10;;;3.88;;
6406;SDS011;3236;51.022;6.818;2023-04-01T17:13:40;5.22;;;4.22;;
6406;SDS011;3236;51.022;6.818;2023-04-01T17:16:28;4.65;;;3.28;;
6406;SDS011;3236;51.022;6.818;2023-04-01T17:19:14;5.55;;;3.45;;
6406;SDS011;3236;51.022;6.818;2023-04-01T17:21:57;5.20;;;3.90;;
6406;SDS011;3236;51.022;6.818;2023-04-01T17:24:31;6.00;;;4.75;;
6406;SDS011;3236;51.022;6.818;2023-04-01T17:27:15;8.38;;;5.30;;
6406;SDS011;3236;51.022;6.818;2023-04-01T17:29:59;6.20;;;4.57;;
6406;SDS011;3236;51.022;6.818;2023-04-01T17:32:44;5.72;;;4.20;;
6406;SDS011;3236;51.022;6.818;2023-04-01T17:35:22;6.50;;;4.40;;
6406;SDS011;3236;51.022;6.818;2023-04-01T17:38:02;8.02;;;4.72;;
6406;SDS011;3236;51.022;6.818;2023-04-01T17:40:39;4.85;;;4.10;;
6406;SDS011;3236;51.022;6.818;2023-04-01T17:43:28;4.93;;;4.22;;
6406;SDS011;3236;51.022;6.818;2023-04-01T17:46:34;5.22;;;4.53;;
6406;SDS011;3236;51.022;6.818;2023-04-01T17:49:22;6.10;;;3.53;;
6406;SDS011;3236;51.022;6.818;2023-04-01T17:52:00;5.25;;;4.05;;
6406;SDS011;3236;51.022;6.818;2023-04-01T17:54:34;4.90;;;3.60;;
6406;SDS011;3236;51.022;6.818;2023-04-01T17:57:24;5.22;;;3.25;;
6406;SDS011;3236;51.022;6.818;2023-04-01T18:00:03;7.15;;;4.22;;
6406;SDS011;3236;51.022;6.818;2023-04-01T18:03:04;7.53;;;4.65;;
6406;SDS011;3236;51.022;6.818;2023-04-01T18:05:48;8.07;;;5.70;;
6406;SDS011;3236;51.022;6.818;2023-04-01T18:11:15;6.45;;;4.82;;
6406;SDS011;3236;51.022;6.818;2023-04-01T18:14:01;9.77;;;5.95;;
6406;SDS011;3236;51.022;6.818;2023-04-01T18:16:39;10.18;;;4.50;;
6406;SDS011;3236;51.022;6.818;2023-04-01T18:19:27;9.50;;;6.65;;
6406;SDS011;3236;51.022;6.818;2023-04-01T18:22:08;11.98;;;7.28;;
6406;SDS011;3236;51.022;6.818;2023-04-01T18:24:40;9.73;;;6.85;;
6406;SDS011;3236;51.022;6.818;2023-04-01T18:27:15;8.93;;;6.82;;
6406;SDS011;3236;51.022;6.818;2023-04-01T18:29:58;12.80;;;7.28;;